Grandville, Michigan
Current Conditions -  °F | °C
As of 10:16 AM on Thursday 23 Oct 2014 (Local Time) from KGRR Reporting Station
Haze Haze  
Wind Chill: 37°   Ceiling: 23000
Heat Index: 37°   Visibility: 4mi
Dew Point: 35°   Wind: 0mph
Humidity: 93%   Direction: NA
Pressure: 30.25"   Gusts: NA
Location:  42.91°N, 85.76°W
Report Text: KGRR 231416Z 00000KT 4SM R26L/1000V2400FT BR FEW003 BKN230 03/02 A3025 RMK AO2 VIS E-SE 3/4 T00280017
Loading
Personal Weather Stations






























Interactive Weather Map
Tropical Storm Tracking
New forecast layout! Learn more

10-Day Weather Forecast

Advertisements
Track Severe Weather on mobile